Date,TemperatureHighF,TemperatureAvgF,TemperatureLowF,DewpointHighF,DewpointAvgF,DewpointLowF,HumidityHigh,HumidityAvg,HumidityLow,PressureMaxIn,PressureMinIn,WindSpeedMaxMPH,WindSpeedAvgMPH,GustSpeedMaxMPH,PrecipitationSumIn
2013-1-1,45,28,15,27,8,-10,78,46,17,0.00,40.00,10,4,13,0.00
2013-1-2,56,42,30,23,4,-28,35,22,5,0.00,40.00,9,3,13,0.17
2013-1-3,46,34,25,27,19,12,84,57,42,0.00,40.00,9,3,13,0.09
2013-1-4,44,31,24,27,19,-26,87,63,7,0.00,40.00,6,3,13,0.05
2013-1-5,55,42,31,20,0,-20,42,18,9,0.00,40.00,8,4,14,0.06
2013-1-6,53,41,31,15,0,-26,50,21,5,0.00,40.00,7,5,13,0.01
2013-1-7,42,33,27,20,16,13,64,51,33,0.00,40.00,17,7,30,0.01
2013-1-8,53,40,31,20,12,0,60,34,15,0.00,40.00,17,12,30,0.01
2013-1-9,53,44,39,10,4,-9,29,20,11,0.00,40.00,22,11,35,0.00
2013-1-10,48,38,32,20,13,-3,54,36,16,0.00,40.00,14,8,24,0.00
2013-1-11,34,22,13,28,14,0,95,75,54,0.00,40.00,14,7,33,0.00
2013-1-12,32,16,9,8,1,-4,65,50,36,0.00,40.00,9,5,20,0.00
2013-1-13,33,17,9,6,-2,-13,67,44,29,0.00,40.00,7,3,14,0.01
2013-1-14,28,14,7,7,-2,-10,59,48,33,0.00,40.00,8,5,17,0.01
2013-1-15,30,18,8,-1,-8,-23,67,35,11,0.00,40.00,20,13,34,0.01
2013-1-16,48,37,26,10,5,-3,29,26,19,0.00,40.00,18,11,29,0.01
2013-1-17,59,47,39,14,8,2,26,21,13,0.00,40.00,11,5,19,0.01
2013-1-18,63,48,40,11,3,-8,23,16,8,0.00,40.00,5,3,9,0.00
2013-1-19,61,48,40,23,12,-18,34,24,7,0.00,40.00,6,4,11,0.00
2013-1-20,60,49,42,34,23,5,47,37,20,0.00,40.00,6,3,11,0.00
2013-1-21,62,51,45,34,28,24,52,41,30,0.00,40.00,6,2,11,0.00
2013-1-22,62,51,46,29,24,12,44,35,24,0.00,40.00,8,4,16,0.00
2013-1-23,59,50,45,30,22,16,38,33,26,0.00,40.00,6,3,14,0.00
2013-1-24,49,44,41,42,33,25,95,66,41,0.00,40.00,6,4,13,0.10
2013-1-25,59,48,41,42,37,33,84,67,52,0.00,40.00,7,4,13,0.01
2013-1-26,47,42,38,42,39,35,98,91,71,0.00,40.00,14,9,29,1.16
2013-1-27,39,38,35,39,36,33,99,94,89,0.00,40.00,10,7,23,0.06
2013-1-28,38,30,21,36,29,18,99,95,93,0.00,40.00,14,11,30,0.02
2013-1-29,29,21,15,21,16,13,93,79,59,0.00,40.00,20,12,34,0.01
2013-1-30,45,33,21,19,11,-1,70,42,23,0.00,40.00,15,10,34,0.04
2013-1-31,53,46,37,21,5,-7,30,19,12,0.00,40.00,16,8,27,0.15
2013-2-1,59,51,41,24,9,-13,31,19,8,0.00,40.00,8,3,14,0.01
2013-2-2,62,52,44,18,6,-7,22,15,8,0.00,40.00,6,3,10,0.01
2013-2-3,55,47,40,32,17,-12,65,35,7,0.00,40.00,8,3,14,0.00
2013-2-4,54,42,37,37,33,29,88,69,48,0.00,40.00,9,5,16,0.00
2013-2-5,59,44,37,38,32,29,82,64,42,0.00,40.00,5,3,12,0.00
2013-2-6,55,40,33,39,32,27,93,74,48,0.00,40.00,10,5,17,0.00
2013-2-7,52,40,31,31,24,15,74,54,38,0.00,40.00,10,4,14,0.00
2013-2-8,47,38,29,24,18,12,71,44,27,0.00,40.00,11,7,24,0.00
2013-2-9,28,23,19,23,19,14,93,84,57,0.00,40.00,13,8,26,0.00
2013-2-10,42,27,16,19,15,9,86,61,37,0.00,40.00,8,5,14,0.13
2013-2-11,31,22,18,22,16,10,90,80,64,0.00,40.00,12,5,21,0.03
2013-2-12,34,23,16,14,10,1,84,58,29,0.00,40.00,14,8,25,0.00
2013-2-13,48,38,26,22,6,-19,48,28,9,0.00,40.00,10,3,17,0.13
2013-2-14,52,41,32,25,13,3,45,33,22,0.00,40.00,16,5,24,0.01
2013-2-15,50,41,35,15,8,2,40,26,17,0.00,40.00,16,12,26,0.00
2013-2-16,53,44,37,4,-3,-14,25,14,7,0.00,40.00,19,12,28,0.00
2013-2-17,56,44,34,16,6,-7,34,21,12,0.00,40.00,11,7,23,0.00
2013-2-18,53,40,31,14,8,2,46,27,13,0.00,40.00,10,5,19,0.00
2013-2-19,50,40,32,16,10,5,49,30,21,0.00,40.00,10,8,22,0.00
2013-2-20,30,23,16,25,20,13,94,89,67,0.00,40.00,12,8,28,0.00
2013-2-21,32,25,15,30,22,12,94,91,89,0.00,40.00,6,3,22,0.00
2013-2-22,42,30,19,35,22,4,92,75,35,0.00,40.00,10,4,17,0.05
2013-2-23,54,37,26,22,13,4,56,37,25,0.00,40.00,10,5,19,0.38
2013-2-24,29,25,20,19,10,-1,78,54,37,0.00,40.00,19,11,37,0.02
2013-2-25,46,30,19,19,6,-19,60,39,9,0.00,40.00,15,8,30,0.08
2013-2-26,54,41,30,22,1,-19,32,20,8,0.00,40.00,12,5,24,0.15
2013-2-27,48,35,26,13,2,-8,37,24,14,0.00,40.00,12,4,21,0.02
2013-2-28,51,37,29,5,-3,-24,27,19,6,0.00,40.00,20,9,30,0.01
2013-3-1,57,47,35,20,8,-21,29,21,7,0.00,40.00,19,9,32,0.00
2013-3-2,67,54,44,21,10,-7,28,17,9,0.00,40.00,6,3,11,0.00
2013-3-3,63,51,44,22,11,-7,37,20,10,0.00,40.00,19,8,36,0.00
2013-3-4,56,45,37,30,18,10,56,34,24,0.00,40.00,16,7,28,0.00
2013-3-5,59,46,39,23,19,16,43,34,23,0.00,40.00,17,8,26,0.00
2013-3-6,65,49,39,28,22,16,48,34,22,0.00,40.00,7,6,16,0.00
2013-3-7,61,47,36,29,21,13,58,37,19,0.00,40.00,10,7,21,0.00
2013-3-8,40,34,25,35,29,22,97,84,58,0.00,40.00,16,11,32,0.05
2013-3-9,31,26,23,30,24,21,95,93,93,0.00,40.00,8,5,21,0.01
2013-3-10,44,33,25,26,23,19,94,68,43,0.00,40.00,23,11,31,0.23
2013-3-11,56,45,33,29,18,-13,55,35,8,0.00,40.00,13,4,21,0.17
2013-3-12,62,53,43,23,15,-13,27,22,8,0.00,40.00,10,5,19,0.01
2013-3-13,68,57,49,21,16,8,26,20,15,0.00,40.00,9,6,14,0.00
2013-3-14,69,58,50,15,11,4,21,16,10,0.00,40.00,14,7,19,0.00
2013-3-15,75,62,51,21,12,4,27,15,9,0.00,40.00,12,5,23,0.00
2013-3-16,70,56,46,25,18,9,38,24,13,0.00,40.00,12,8,25,0.00
2013-3-17,63,51,42,25,20,16,42,31,18,0.00,40.00,18,9,35,0.00
2013-3-18,65,50,39,26,18,13,39,29,17,0.00,40.00,10,7,16,0.00
2013-3-19,61,50,40,31,23,16,48,36,22,0.00,40.00,9,5,16,0.00
2013-3-20,68,53,44,28,22,16,37,30,21,0.00,40.00,11,5,17,0.00
2013-3-21,60,50,43,31,24,21,51,37,28,0.00,40.00,11,7,22,0.00
2013-3-22,62,48,38,31,26,21,55,42,29,0.00,40.00,11,7,24,0.00
2013-3-23,55,44,35,28,12,-3,69,33,14,0.00,40.00,20,10,36,0.00
2013-3-24,61,47,36,10,2,-20,26,16,7,0.00,40.00,11,6,19,0.00
2013-3-25,63,49,39,16,11,6,28,22,14,0.00,40.00,6,3,17,0.00
2013-3-26,67,54,44,17,11,5,26,18,11,0.00,40.00,9,5,20,0.00
2013-3-27,68,53,43,22,15,8,27,22,15,0.00,40.00,9,5,19,0.00
2013-3-28,67,57,48,29,18,9,28,22,17,0.00,40.00,9,7,18,0.00
2013-3-29,71,54,43,34,18,4,42,25,15,0.00,40.00,6,5,14,0.00
2013-3-30,66,54,47,27,15,-100,33,23,15,0.00,40.00,9,4,18,0.00
2013-3-31,69,54,45,27,22,15,37,28,19,0.00,40.00,9,6,19,0.00
2013-4-1,67,52,41,30,24,17,56,35,23,0.00,40.00,9,6,20,0.00
2013-4-2,65,49,39,21,16,8,38,27,16,0.00,40.00,10,6,19,0.00
2013-4-3,69,52,41,27,22,16,43,32,19,0.00,40.00,10,4,18,0.00
2013-4-4,69,56,47,22,14,8,35,20,12,0.00,40.00,11,6,20,0.00
2013-4-5,72,57,47,27,20,11,41,24,15,0.00,40.00,11,6,24,0.00
2013-4-6,69,54,40,29,24,18,47,33,19,0.00,40.00,9,6,16,0.00
2013-4-7,70,55,42,29,25,22,51,33,19,0.00,40.00,9,5,18,0.00
2013-4-8,61,49,36,34,28,21,69,46,25,0.00,40.00,16,11,36,0.00
2013-4-9,45,33,28,37,26,17,96,79,47,0.00,40.00,16,10,28,0.21
2013-4-10,52,39,28,26,21,12,66,49,31,0.00,40.00,9,5,18,0.03
2013-4-11,64,48,35,29,18,7,40,30,24,0.00,40.00,13,7,25,0.00
2013-4-12,61,50,44,22,17,12,33,27,22,0.00,40.00,7,4,15,0.00
2013-4-13,67,55,45,26,20,16,38,26,17,0.00,40.00,12,6,23,0.00
2013-4-14,66,52,39,32,24,15,53,36,19,0.00,40.00,13,10,25,0.00
2013-4-15,66,51,38,32,26,22,64,41,20,0.00,40.00,13,10,26,0.00
2013-4-16,64,51,39,33,26,15,69,41,22,0.00,40.00,12,10,25,0.00
2013-4-17,49,40,32,35,22,4,94,56,25,0.00,40.00,14,11,28,0.00
2013-4-18,55,40,28,14,7,-1,40,25,15,0.00,40.00,24,9,38,0.00
2013-4-19,62,48,36,5,0,-6,23,14,9,0.00,40.00,17,6,31,0.00
2013-4-20,68,54,42,14,6,-16,21,14,7,0.00,40.00,10,6,21,0.00
2013-4-21,74,59,47,19,12,6,21,16,10,0.00,40.00,8,5,15,0.00
2013-4-22,75,60,48,17,13,9,22,16,9,0.00,40.00,10,6,18,0.00
2013-4-23,72,57,42,22,16,10,28,21,12,0.00,40.00,11,7,20,0.00
2013-4-24,73,58,46,26,19,13,36,23,13,0.00,40.00,7,5,16,0.00
2013-4-25,64,53,42,25,20,10,40,28,15,0.00,40.00,13,8,28,0.00
2013-4-26,71,56,40,27,15,-10,27,20,8,0.00,40.00,8,5,15,0.00
2013-4-27,73,60,50,23,19,14,30,21,14,0.00,40.00,10,6,16,0.00
2013-4-28,77,64,54,16,12,6,21,14,8,0.00,40.00,9,6,20,0.00
2013-4-29,79,67,56,17,10,5,14,11,6,0.00,40.00,12,5,23,0.00
2013-4-30,77,64,52,19,14,9,25,15,10,0.00,40.00,12,8,26,0.00
2013-5-1,74,59,44,21,16,10,32,20,9,0.00,40.00,9,6,19,0.00
2013-5-2,65,56,48,18,12,2,26,17,12,0.00,40.00,19,12,29,0.00
2013-5-3,69,52,41,14,10,5,32,19,8,0.00,40.00,22,12,34,0.00
2013-5-4,75,61,49,22,14,6,29,16,11,0.00,40.00,10,6,21,0.00
2013-5-5,71,55,42,35,23,16,67,30,14,0.00,40.00,10,8,21,0.04
2013-5-6,66,50,38,43,36,29,95,63,29,0.00,40.00,10,6,21,0.16
2013-5-7,65,49,38,38,30,21,80,51,22,0.00,40.00,11,8,24,0.00
2013-5-8,67,48,34,35,30,25,92,54,20,0.00,40.00,8,5,16,0.00
2013-5-9,66,52,40,36,29,18,75,44,17,0.00,40.00,8,4,15,0.00
2013-5-10,65,50,45,34,26,-100,60,42,30,0.00,40.00,8,4,19,0.08
2013-5-11,59,52,44,35,29,-100,62,42,29,0.00,40.00,17,13,31,0.01
2013-5-12,64,56,47,33,28,23,55,36,23,0.00,40.00,21,16,34,0.00
2013-5-13,68,60,52,29,22,10,33,24,16,0.00,40.00,16,11,27,0.00
2013-5-14,76,64,53,32,24,10,34,22,15,0.00,40.00,9,5,21,0.00
2013-5-15,79,64,53,32,28,23,39,26,15,0.00,40.00,12,9,26,0.00
2013-5-16,78,61,50,30,11,-100,33,22,11,0.00,40.00,9,6,23,0.00
2013-5-17,76,61,48,28,22,-100,41,25,10,0.00,40.00,12,7,22,0.00
2013-5-18,72,58,45,28,22,11,39,27,12,0.00,40.00,14,7,26,0.00
2013-5-19,75,59,46,38,29,25,51,35,17,0.00,40.00,9,5,20,0.00
2013-5-20,73,60,50,31,23,10,41,25,15,0.00,40.00,13,8,28,0.00
2013-5-21,79,63,51,21,14,9,22,15,8,0.00,40.00,10,6,16,0.00
2013-5-22,80,66,54,24,17,11,25,16,9,0.00,40.00,10,6,18,0.00
2013-5-23,81,64,50,30,23,16,39,23,9,0.00,40.00,9,6,21,0.00
2013-5-24,79,64,51,38,25,10,53,28,7,0.00,40.00,8,5,19,0.00
2013-5-25,78,64,50,32,22,9,47,24,7,0.00,40.00,8,5,19,0.00
2013-5-26,78,62,51,24,14,2,30,17,7,0.00,40.00,9,6,21,0.00
2013-5-27,78,63,49,24,14,1,27,16,5,0.00,40.00,9,6,18,0.00
2013-5-28,76,62,51,27,18,11,37,19,10,0.00,40.00,11,7,26,0.00
2013-5-29,76,61,46,37,30,26,53,33,19,0.00,40.00,12,6,24,0.00
2013-5-30,80,64,47,49,38,29,90,44,18,0.00,40.00,11,6,23,0.00
2013-5-31,83,66,50,49,39,19,85,42,18,0.00,40.00,9,5,19,0.00
2013-6-1,86,73,61,38,32,12,37,23,14,0.00,40.00,14,6,20,0.00
2013-6-2,87,74,59,37,31,24,33,21,12,0.00,40.00,11,5,21,0.00
2013-6-3,83,69,55,34,24,16,39,20,10,0.00,40.00,9,6,19,0.00
2013-6-4,83,69,57,40,31,25,43,25,14,0.00,40.00,9,5,19,0.00
2013-6-5,85,69,54,31,23,14,40,20,8,0.00,40.00,9,5,16,0.00
2013-6-6,85,72,62,28,22,12,20,15,12,0.00,40.00,9,6,18,0.00
2013-6-7,88,75,67,31,24,18,18,15,10,0.00,40.00,10,6,21,0.00
2013-6-8,86,75,66,28,23,19,20,14,9,0.00,40.00,14,7,26,0.00
2013-6-9,88,74,61,29,20,8,26,14,7,0.00,40.00,8,4,15,0.00
2013-6-10,90,77,66,31,24,18,21,14,8,0.00,40.00,10,6,19,0.00
2013-6-11,90,77,64,29,23,18,20,14,7,0.00,40.00,14,6,24,0.00
2013-6-12,89,78,68,31,26,19,18,15,11,0.00,40.00,10,5,21,0.00
2013-6-13,87,75,65,42,34,25,34,23,18,0.00,40.00,11,5,19,0.00
2013-6-14,88,72,60,52,42,31,57,34,23,0.00,40.00,9,4,19,0.00
2013-6-15,86,71,62,52,41,32,45,35,28,0.00,40.00,9,4,16,0.01
2013-6-16,85,73,63,48,39,23,44,30,20,0.00,40.00,9,5,19,0.01
2013-6-17,85,72,63,31,26,18,24,18,12,0.00,40.00,7,5,18,0.00
2013-6-18,87,72,61,28,14,-8,20,12,4,0.00,40.00,7,4,16,0.00
2013-6-19,87,71,58,34,19,-3,23,14,7,0.00,40.00,10,6,21,0.00
2013-6-20,85,67,54,28,18,7,33,18,6,0.00,40.00,8,5,19,0.00
2013-6-22,85,75,62,26,19,13,21,13,7,0.00,40.00,12,7,23,0.00
2013-6-23,84,68,54,30,22,13,28,19,9,0.00,40.00,10,6,26,0.00
2013-6-24,84,68,55,35,25,15,41,22,9,0.00,40.00,9,7,25,0.00
2013-6-25,86,68,51,36,22,9,54,22,7,0.00,40.00,8,6,15,0.00
2013-6-26,87,71,56,26,19,9,28,15,7,0.00,40.00,7,5,13,0.00
2013-6-27,90,77,65,35,24,12,18,14,11,0.00,40.00,7,4,14,0.00
2013-6-28,89,80,72,35,26,18,18,14,10,0.00,40.00,13,6,20,0.00
2013-6-29,86,78,71,43,35,29,31,22,17,0.00,40.00,13,7,26,0.00
2013-6-30,90,78,58,50,40,33,68,29,16,0.00,40.00,10,6,22,0.03
2013-7-1,85,72,57,50,46,43,77,41,28,0.00,40.00,11,7,21,0.04
2013-7-2,81,69,54,56,50,42,83,52,36,0.00,40.00,32,8,49,0.25
2013-7-3,87,74,62,50,44,35,52,35,27,0.00,40.00,14,7,28,0.04
2013-7-4,86,74,58,54,48,42,75,42,26,0.00,40.00,10,5,22,0.00
2013-7-5,80,66,57,59,52,44,96,63,46,0.00,40.00,9,4,21,2.52
2013-7-6,86,71,63,58,52,48,62,52,33,0.00,40.00,10,4,16,0.01
2013-7-7,84,72,63,55,49,42,66,44,34,0.00,40.00,13,8,25,0.03
2013-7-8,85,70,64,58,48,-100,67,47,33,0.00,40.00,19,8,29,0.03
2013-7-9,78,68,57,64,54,43,92,62,39,0.00,40.00,12,6,19,0.31
2013-7-10,77,66,59,63,56,-100,96,72,52,0.00,40.00,12,5,22,1.27
2013-7-11,73,65,59,64,57,53,96,78,66,0.00,40.00,10,3,17,0.02
2013-7-12,77,65,59,61,56,52,89,72,55,0.00,40.00,12,4,21,0.16
2013-7-13,79,68,62,60,54,49,81,64,50,0.00,40.00,12,3,23,0.16
2013-7-14,84,70,63,59,54,51,70,58,42,0.00,40.00,12,4,21,0.00
2013-7-15,81,71,61,61,54,49,78,56,41,0.00,40.00,11,6,24,0.22
2013-7-16,68,63,58,61,57,51,90,82,74,0.00,40.00,9,3,17,1.02
2013-7-17,73,64,57,55,50,45,78,61,47,0.00,40.00,15,9,22,0.02
2013-7-18,71,63,57,54,51,46,77,64,53,0.00,40.00,17,12,29,0.00
2013-7-19,70,62,57,57,52,48,79,71,58,0.00,40.00,15,9,29,0.05
2013-7-20,72,63,57,60,56,52,94,78,58,0.00,40.00,10,6,20,0.31
2013-7-21,74,62,57,62,57,54,98,85,57,0.00,40.00,5,3,11,0.02
2013-7-22,75,62,55,60,55,50,92,78,60,0.00,40.00,6,4,9,0.01
2013-7-23,78,66,58,60,54,49,78,66,51,0.00,40.00,7,3,14,0.01
2013-7-24,74,65,58,61,55,51,92,71,58,0.00,40.00,10,4,24,0.53
2013-7-25,74,64,60,64,56,49,89,77,58,0.00,40.00,11,4,20,0.56
2013-7-26,79,65,60,63,55,50,83,71,58,0.00,40.00,8,3,14,0.02
2013-7-27,80,65,56,63,56,49,89,73,54,0.00,40.00,6,3,15,0.20
2013-7-28,82,70,61,56,51,39,75,54,35,0.00,40.00,7,4,16,0.01
2013-7-29,82,67,56,51,43,37,51,42,29,0.00,40.00,6,4,14,0.00
2013-7-30,79,70,63,53,46,41,45,42,34,0.00,40.00,8,4,14,0.00
2013-7-31,86,70,60,52,47,42,76,45,28,0.00,40.00,10,4,19,0.04
2013-8-1,75,67,62,59,52,47,70,60,52,0.00,40.00,10,3,16,0.01
2013-8-2,75,66,60,60,53,46,82,65,54,0.00,40.00,5,3,13,0.01
2013-8-3,83,70,60,56,51,46,69,52,35,0.00,40.00,5,3,12,0.01
2013-8-4,78,68,61,56,50,40,70,54,40,0.00,40.00,7,3,15,0.01
2013-8-5,75,64,54,57,49,40,93,61,38,0.00,40.00,17,5,24,0.38
2013-8-6,69,58,54,59,50,44,94,76,58,0.00,40.00,8,3,17,0.40
2013-8-7,76,64,54,56,49,42,86,60,39,0.00,40.00,10,6,23,0.01
2013-8-8,82,68,58,49,41,26,57,38,24,0.00,40.00,8,4,14,0.00
2013-8-9,83,70,62,44,36,24,38,29,22,0.00,40.00,8,4,17,0.00
2013-8-10,83,70,61,45,38,29,40,31,22,0.00,40.00,6,4,16,0.00
2013-8-11,77,66,57,54,48,29,65,52,29,0.00,40.00,12,4,19,1.74
2013-8-12,85,70,61,57,47,30,62,45,25,0.00,40.00,8,4,16,0.01
2013-8-13,81,72,64,47,38,26,36,29,23,0.00,40.00,9,5,16,0.00
2013-8-14,80,70,58,53,46,35,76,44,32,0.00,40.00,7,4,16,0.94
2013-8-15,82,63,63,53,32,-100,57,44,30,0.00,40.00,10,5,21,0.06
2013-8-16,84,71,65,53,44,-100,57,41,23,0.00,40.00,9,6,16,0.00
2013-8-17,83,72,65,51,45,-100,56,39,30,0.00,40.00,11,3,27,0.20
2013-8-18,86,72,63,56,47,40,54,41,29,0.00,40.00,15,5,26,0.20
2013-8-19,85,70,64,52,37,-100,47,37,28,0.00,40.00,6,3,13,0.00
2013-8-20,82,66,57,59,47,-100,82,56,42,0.00,40.00,8,4,16,0.52
2013-8-21,74,66,62,55,48,42,74,54,45,0.00,40.00,16,6,23,0.01
2013-8-22,78,67,61,56,50,46,68,57,43,0.00,40.00,11,4,15,1.66
2013-8-23,77,67,54,54,50,46,88,55,40,0.00,40.00,11,6,23,0.05
2013-8-24,70,59,53,59,51,-100,91,77,61,0.00,40.00,12,4,19,0.28
2013-8-25,71,62,57,59,55,50,95,78,57,0.00,40.00,8,4,16,0.34
2013-8-26,76,66,60,57,53,47,83,65,51,0.00,40.00,15,8,21,0.26
2013-8-27,73,67,63,52,48,46,55,51,45,0.00,40.00,14,12,24,0.00
2013-8-28,72,65,57,59,55,53,92,71,55,0.00,40.00,18,11,25,0.14
2013-8-29,73,61,57,65,57,52,97,87,69,0.00,40.00,5,2,9,0.29
2013-8-30,72,62,58,63,54,46,86,73,59,0.00,40.00,8,2,12,0.11
2013-8-31,80,65,59,62,51,-100,78,63,50,0.00,40.00,8,3,14,0.03
2013-9-1,79,68,60,61,52,42,68,58,46,0.00,40.00,6,2,11,0.01
2013-9-2,81,69,62,60,52,47,81,54,37,0.00,40.00,7,3,14,0.00
2013-9-3,82,69,62,55,49,43,68,50,39,0.00,40.00,12,6,23,0.00
2013-9-4,76,69,62,51,45,38,61,43,33,0.00,40.00,16,10,29,0.00
2013-9-5,76,69,64,49,44,38,48,40,32,0.00,40.00,11,9,21,0.00
2013-9-6,75,67,59,52,47,43,73,48,39,0.00,40.00,10,6,18,0.00
2013-9-7,70,58,54,55,49,-100,90,74,58,0.00,40.00,9,4,17,0.15
2013-9-8,66,59,55,57,53,48,95,81,71,0.00,40.00,10,5,16,0.20
2013-9-9,68,57,54,60,54,48,97,90,71,0.00,40.00,8,4,15,0.35
2013-9-10,70,59,50,58,52,47,96,77,60,0.00,40.00,8,4,15,0.72
2013-9-11,71,60,50,55,47,34,95,64,39,0.00,40.00,6,4,11,0.00
2013-9-12,73,64,57,57,48,39,88,58,46,0.00,40.00,12,5,19,0.00
2013-9-13,72,64,57,57,51,45,85,64,47,0.00,40.00,12,4,19,0.00
2013-9-14,81,67,59,55,47,-100,70,53,29,0.00,40.00,6,3,11,0.00
2013-9-15,74,65,60,50,48,47,65,55,41,0.00,40.00,11,6,19,0.00
2013-9-16,76,66,60,56,52,49,71,60,45,0.00,40.00,14,10,23,0.00
2013-9-17,76,66,59,55,51,46,75,59,47,0.00,40.00,10,7,21,0.00
2013-9-18,64,63,62,49,43,32,63,51,32,0.00,40.00,4,2,11,0.00
2013-9-19,83,69,58,49,42,32,58,39,27,0.00,40.00,10,4,16,0.00
2013-9-20,83,67,59,54,46,37,60,48,35,0.00,40.00,9,5,19,0.00
2013-9-21,80,65,58,54,45,-100,68,51,34,0.00,40.00,7,4,11,0.00
2013-9-22,69,59,49,57,47,35,96,67,46,0.00,40.00,13,7,29,0.04
2013-9-23,73,59,46,43,36,17,74,46,20,0.00,40.00,7,4,16,0.04
2013-9-24,79,65,56,41,35,27,46,34,18,0.00,40.00,6,3,11,0.00
2013-9-25,75,62,51,34,25,14,33,25,20,0.00,40.00,11,7,21,0.00
2013-9-26,71,58,47,48,33,16,77,39,29,0.00,40.00,10,8,24,0.00
2013-9-27,66,52,45,49,41,24,94,70,42,0.00,40.00,8,5,16,0.00
2013-9-28,71,56,45,41,32,-100,55,42,33,0.00,40.00,8,4,15,0.00
2013-9-29,74,61,53,44,37,28,54,41,32,0.00,40.00,5,3,13,0.00
2013-9-30,76,62,51,39,32,21,43,32,23,0.00,40.00,7,4,11,0.00
2013-10-1,73,60,54,34,31,28,44,34,24,0.00,40.00,6,4,10,0.00
2013-10-2,74,60,49,42,36,32,52,42,30,0.00,40.00,7,4,12,0.00
2013-10-3,72,58,47,49,39,26,83,51,28,0.00,40.00,9,6,18,0.00
2013-10-4,70,56,45,40,34,21,64,45,30,0.00,40.00,10,6,23,0.00
2013-10-5,66,54,44,29,20,-1,48,28,12,0.00,40.00,12,4,19,0.00
2013-10-6,66,56,47,23,15,4,24,20,11,0.00,40.00,17,11,26,0.00
2013-10-7,76,63,53,36,23,4,29,22,13,0.00,40.00,15,5,24,0.00
2013-10-8,71,59,50,36,27,19,36,30,25,0.00,40.00,8,6,17,0.00
2013-10-9,63,53,45,38,31,24,61,44,30,0.00,40.00,14,10,30,0.00
2013-10-10,50,42,37,46,37,33,98,86,64,0.00,40.00,15,8,29,0.01
2013-10-11,61,47,36,41,34,22,91,62,24,0.00,40.00,6,3,11,0.01
2013-10-12,68,53,44,33,28,-100,54,40,27,0.00,40.00,8,4,15,0.00
2013-10-13,67,55,46,42,35,29,67,49,30,0.00,40.00,11,8,24,0.00
2013-10-14,67,53,41,43,32,20,81,48,28,0.00,40.00,11,6,22,0.00
2013-10-15,68,53,43,43,31,19,66,45,27,0.00,40.00,8,5,17,0.00
2013-10-16,66,49,37,25,17,4,42,29,18,0.00,40.00,10,4,17,0.00
2013-10-17,65,51,40,24,14,-1,29,23,15,0.00,40.00,5,4,10,0.00
2013-10-18,66,55,45,27,18,3,33,23,18,0.00,40.00,10,6,18,0.00
2013-10-19,69,56,46,23,12,-100,24,18,13,0.00,40.00,4,2,13,0.00
2013-10-20,68,55,47,23,8,-9,21,15,9,0.00,40.00,10,4,17,0.00
2013-10-21,70,57,49,23,14,7,20,18,15,0.00,40.00,7,5,14,0.00
2013-10-22,67,56,49,18,15,10,26,20,13,0.00,40.00,11,8,19,0.00
2013-10-23,75,60,51,29,21,16,27,23,17,0.00,40.00,12,5,21,0.00
2013-10-24,74,59,50,32,23,16,28,24,21,0.00,40.00,8,4,16,0.00
2013-10-25,69,57,48,31,24,19,35,28,22,0.00,40.00,5,2,11,0.00
2013-10-26,67,56,50,29,20,-100,37,26,20,0.00,40.00,11,8,18,0.00
2013-10-27,71,58,46,30,24,19,39,27,20,0.00,40.00,8,4,19,0.00
2013-10-28,62,48,39,30,25,-100,61,44,26,0.00,40.00,12,8,25,0.00
2013-10-29,57,47,39,31,28,26,70,50,35,0.00,40.00,11,9,26,0.00
2013-10-30,56,43,36,37,31,20,94,68,27,0.00,40.00,9,7,19,0.00
2013-10-31,64,52,41,24,15,0,36,23,10,0.00,40.00,6,3,14,0.00
2013-11-1,65,54,43,24,13,-11,26,20,9,0.00,40.00,15,4,24,0.00
2013-11-2,71,55,45,30,11,-100,55,18,11,0.00,40.00,17,8,27,0.14
2013-11-3,61,48,40,43,39,33,96,73,49,0.00,40.00,9,5,20,0.23
2013-11-4,58,47,39,43,38,33,94,73,46,0.00,40.00,10,6,20,0.01
2013-11-5,52,41,36,39,35,32,96,80,50,0.00,40.00,12,6,20,0.01
2013-11-6,57,48,36,25,4,-10,64,19,9,0.00,40.00,20,8,29,0.00
2013-11-7,62,51,43,23,12,-11,39,22,9,0.00,40.00,21,11,36,0.00
2013-11-8,67,54,44,32,28,25,52,38,24,0.00,40.00,5,3,11,0.00
2013-11-9,67,53,44,34,27,-100,49,39,27,0.00,40.00,5,3,11,0.00
2013-11-10,67,56,48,32,28,26,46,35,23,0.00,40.00,8,5,16,0.00
2013-11-11,66,57,51,33,30,27,46,37,28,0.00,40.00,14,8,21,0.00
2013-11-12,62,53,45,39,32,22,70,46,34,0.00,40.00,23,16,34,0.00
2013-11-13,68,52,44,41,38,33,81,60,36,0.00,40.00,19,9,30,0.00
2013-11-14,67,52,44,40,32,19,75,47,24,0.00,40.00,8,5,14,0.00
2013-11-15,48,45,43,43,39,29,95,80,55,0.00,40.00,13,9,26,0.00
2013-11-16,57,45,38,41,35,-100,94,74,40,0.00,40.00,14,10,29,0.00
2013-11-17,59,46,37,39,36,33,88,71,41,0.00,40.00,12,6,21,0.00
2013-11-18,62,49,43,42,36,23,88,65,27,0.00,40.00,8,4,14,0.00
2013-11-19,65,49,40,34,27,15,71,46,14,0.00,40.00,7,4,16,0.00
2013-11-20,57,47,40,35,28,21,70,50,33,0.00,40.00,10,7,18,0.00
2013-11-21,54,44,38,41,36,31,91,73,47,0.00,40.00,9,6,19,0.03
2013-11-22,44,42,40,41,39,36,90,88,86,0.00,40.00,19,12,40,0.75
2013-11-23,39,33,32,36,30,-100,92,89,88,0.00,40.00,12,6,35,0.85
2013-11-24,39,32,26,36,29,23,92,90,79,0.00,40.00,6,3,14,0.08
2013-11-25,42,34,25,29,22,16,87,64,38,0.00,40.00,14,6,23,0.18
2013-11-26,42,36,31,25,22,17,77,57,42,0.00,40.00,20,17,31,0.05
2013-11-27,49,38,32,18,14,9,53,37,25,0.00,40.00,19,9,29,0.11
2013-11-28,55,44,37,28,23,13,56,42,30,0.00,40.00,8,4,16,0.11
2013-11-29,60,46,39,37,29,23,68,52,29,0.00,40.00,6,4,13,0.02
2013-11-30,61,47,40,32,21,-100,72,41,17,0.00,40.00,4,3,12,0.00
2013-12-1,66,52,43,32,23,14,50,35,17,0.00,40.00,6,3,11,0.00
2013-12-2,65,58,47,29,20,8,34,24,11,0.00,40.00,7,4,11,0.00
2013-12-3,58,46,37,37,21,2,85,43,19,0.00,40.00,11,8,21,0.00
2013-12-4,47,37,32,36,33,28,95,83,52,0.00,40.00,12,9,28,0.00
2013-12-5,32,27,19,29,24,15,90,88,84,0.00,40.00,10,6,27,0.00
2013-12-6,44,25,13,25,14,1,91,67,42,0.00,40.00,5,3,11,0.00
2013-12-7,44,29,21,19,11,-100,82,51,24,0.00,40.00,12,8,24,0.00
2013-12-8,38,30,24,29,26,22,94,86,69,0.00,40.00,12,9,24,0.00
2013-12-9,42,31,19,26,21,-2,89,69,29,0.00,40.00,7,5,16,0.07
2013-12-10,54,47,31,10,2,-19,20,16,10,0.00,40.00,12,3,16,0.14
2013-12-11,56,45,38,37,28,9,74,54,27,0.00,40.00,10,5,16,0.18
2013-12-12,54,44,32,38,35,26,86,71,54,0.00,40.00,9,6,18,0.01
2013-12-13,48,36,28,30,23,6,85,63,30,0.00,40.00,12,4,19,0.00
2013-12-14,49,37,30,20,11,-100,58,37,20,0.00,40.00,20,13,34,0.00
2013-12-15,62,51,37,18,8,-10,27,18,11,0.00,40.00,16,9,24,0.00
2013-12-16,71,60,51,19,8,0,19,13,8,0.00,40.00,9,6,17,0.00
2013-12-17,72,61,52,25,11,-1,20,14,10,0.00,40.00,9,5,13,0.00
2013-12-18,67,55,43,19,12,-4,38,20,9,0.00,40.00,6,4,13,0.00
2013-12-19,51,39,33,24,21,18,68,49,29,0.00,40.00,12,9,24,0.00
2013-12-20,47,31,25,32,26,20,95,82,54,0.00,40.00,8,4,24,0.00
2013-12-21,30,26,23,25,22,-100,92,88,83,0.00,40.00,7,5,16,0.00
2013-12-22,44,32,22,34,24,-8,93,74,16,0.00,40.00,8,3,19,0.16
2013-12-23,48,40,31,9,3,-11,37,22,10,0.00,40.00,20,11,29,0.04
2013-12-24,63,55,42,26,14,-13,36,22,8,0.00,40.00,21,6,32,0.33
2013-12-25,52,44,35,21,13,-4,40,29,14,0.00,40.00,21,11,31,0.04
2013-12-26,50,39,33,13,5,-7,42,26,9,0.00,40.00,18,14,28,0.01
2013-12-27,46,40,36,12,7,-2,31,25,18,0.00,40.00,20,16,30,0.00
2013-12-28,58,42,34,19,2,-100,54,22,9,0.00,40.00,19,6,28,0.00
2013-12-29,50,38,31,22,16,10,58,41,24,0.00,40.00,15,6,22,0.00
2013-12-30,53,42,35,20,10,2,46,28,17,0.00,40.00,11,6,19,0.00
2013-12-31,59,46,40,20,9,1,31,22,17,0.00,40.00,7,3,11,0.00
2014-1-1,60,48,42,21,13,3,35,24,16,0.00,40.00,16,5,27,0.00
2014-1-2,62,47,41,22,14,10,35,27,15,0.00,40.00,13,6,22,0.00